sensor_id;sensor_type;location;lat;lon;timestamp;temperature;humidity
12682;DHT22;6405;59.208;18.216;2024-03-02T00:02:14;2.10;99.90
12682;DHT22;6405;59.208;18.216;2024-03-02T00:04:40;2.10;99.90
12682;DHT22;6405;59.208;18.216;2024-03-02T00:07:06;2.00;99.90
12682;DHT22;6405;59.208;18.216;2024-03-02T00:09:33;2.00;99.90
12682;DHT22;6405;59.208;18.216;2024-03-02T00:12:02;2.00;99.90
12682;DHT22;6405;59.208;18.216;2024-03-02T00:14:31;1.90;99.90
12682;DHT22;6405;59.208;18.216;2024-03-02T00:16:57;2.00;99.90
12682;DHT22;6405;59.208;18.216;2024-03-02T00:19:23;1.90;99.90
12682;DHT22;6405;59.208;18.216;2024-03-02T00:21:48;1.90;99.90
12682;DHT22;6405;59.208;18.216;2024-03-02T00:24:34;1.90;99.90
12682;DHT22;6405;59.208;18.216;2024-03-02T00:27:01;1.90;99.90
12682;DHT22;6405;59.208;18.216;2024-03-02T00:29:29;1.80;99.90
12682;DHT22;6405;59.208;18.216;2024-03-02T00:31:55;1.90;99.90
12682;DHT22;6405;59.208;18.216;2024-03-02T00:34:21;1.80;99.90
12682;DHT22;6405;59.208;18.216;2024-03-02T00:36:47;1.80;99.90
12682;DHT22;6405;59.208;18.216;2024-03-02T00:39:15;1.80;99.90
12682;DHT22;6405;59.208;18.216;2024-03-02T00:41:42;1.70;99.90
12682;DHT22;6405;59.208;18.216;2024-03-02T00:44:12;1.70;99.90
12682;DHT22;6405;59.208;18.216;2024-03-02T00:46:39;1.70;99.90
12682;DHT22;6405;59.208;18.216;2024-03-02T00:49:12;1.70;99.90
12682;DHT22;6405;59.208;18.216;2024-03-02T00:51:44;1.60;99.90
12682;DHT22;6405;59.208;18.216;2024-03-02T00:54:11;1.60;99.90
12682;DHT22;6405;59.208;18.216;2024-03-02T00:56:37;1.60;99.90
12682;DHT22;6405;59.208;18.216;2024-03-02T00:59:02;1.50;99.90
12682;DHT22;6405;59.208;18.216;2024-03-02T01:01:28;1.50;99.90
12682;DHT22;6405;59.208;18.216;2024-03-02T01:03:54;1.50;99.90
12682;DHT22;6405;59.208;18.216;2024-03-02T01:06:20;1.50;99.90
12682;DHT22;6405;59.208;18.216;2024-03-02T01:08:45;1.50;99.90
12682;DHT22;6405;59.208;18.216;2024-03-02T01:11:12;1.50;99.90
12682;DHT22;6405;59.208;18.216;2024-03-02T01:13:38;1.50;99.90
12682;DHT22;6405;59.208;18.216;2024-03-02T01:16:04;1.50;99.90
12682;DHT22;6405;59.208;18.216;2024-03-02T01:18:30;1.50;99.90
12682;DHT22;6405;59.208;18.216;2024-03-02T01:20:56;1.50;99.90
12682;DHT22;6405;59.208;18.216;2024-03-02T01:23:23;1.50;99.90
12682;DHT22;6405;59.208;18.216;2024-03-02T01:25:49;1.60;99.90
12682;DHT22;6405;59.208;18.216;2024-03-02T01:28:15;1.60;99.90
12682;DHT22;6405;59.208;18.216;2024-03-02T01:30:41;1.70;99.90
12682;DHT22;6405;59.208;18.216;2024-03-02T01:33:07;1.60;99.90
12682;DHT22;6405;59.208;18.216;2024-03-02T01:35:33;1.60;99.90
12682;DHT22;6405;59.208;18.216;2024-03-02T01:38:00;1.70;99.90
12682;DHT22;6405;59.208;18.216;2024-03-02T01:40:27;1.60;99.90
12682;DHT22;6405;59.208;18.216;2024-03-02T01:42:54;1.60;99.90
12682;DHT22;6405;59.208;18.216;2024-03-02T01:45:21;1.60;99.90
12682;DHT22;6405;59.208;18.216;2024-03-02T01:47:47;1.60;99.90
12682;DHT22;6405;59.208;18.216;2024-03-02T01:50:13;1.70;99.90
12682;DHT22;6405;59.208;18.216;2024-03-02T01:52:39;1.70;99.90
12682;DHT22;6405;59.208;18.216;2024-03-02T01:55:05;1.70;99.90
12682;DHT22;6405;59.208;18.216;2024-03-02T01:57:32;1.70;99.90
12682;DHT22;6405;59.208;18.216;2024-03-02T01:59:58;1.70;99.90
12682;DHT22;6405;59.208;18.216;2024-03-02T02:02:24;1.70;99.90
12682;DHT22;6405;59.208;18.216;2024-03-02T02:04:49;1.70;99.90
12682;DHT22;6405;59.208;18.216;2024-03-02T02:07:15;1.80;99.90
12682;DHT22;6405;59.208;18.216;2024-03-02T02:09:44;1.70;99.90
12682;DHT22;6405;59.208;18.216;2024-03-02T02:12:10;1.70;99.90
12682;DHT22;6405;59.208;18.216;2024-03-02T02:14:36;1.70;99.90
12682;DHT22;6405;59.208;18.216;2024-03-02T02:17:02;1.70;99.90
12682;DHT22;6405;59.208;18.216;2024-03-02T02:19:28;1.70;99.90
12682;DHT22;6405;59.208;18.216;2024-03-02T02:21:54;1.70;99.90
12682;DHT22;6405;59.208;18.216;2024-03-02T02:24:20;1.60;99.90
12682;DHT22;6405;59.208;18.216;2024-03-02T02:26:46;1.60;99.90
12682;DHT22;6405;59.208;18.216;2024-03-02T02:29:11;1.60;99.90
12682;DHT22;6405;59.208;18.216;2024-03-02T02:31:38;1.60;99.90
12682;DHT22;6405;59.208;18.216;2024-03-02T02:34:04;1.60;99.90
12682;DHT22;6405;59.208;18.216;2024-03-02T02:36:31;1.80;99.90
12682;DHT22;6405;59.208;18.216;2024-03-02T02:38:57;1.60;99.90
12682;DHT22;6405;59.208;18.216;2024-03-02T02:41:24;1.60;99.90
12682;DHT22;6405;59.208;18.216;2024-03-02T02:43:50;1.60;99.90
12682;DHT22;6405;59.208;18.216;2024-03-02T02:46:15;1.60;99.90
12682;DHT22;6405;59.208;18.216;2024-03-02T02:48:41;1.60;99.90
12682;DHT22;6405;59.208;18.216;2024-03-02T02:51:07;1.60;99.90
12682;DHT22;6405;59.208;18.216;2024-03-02T02:53:32;1.60;99.90
12682;DHT22;6405;59.208;18.216;2024-03-02T02:56:00;1.60;99.90
12682;DHT22;6405;59.208;18.216;2024-03-02T02:58:26;1.60;99.90
12682;DHT22;6405;59.208;18.216;2024-03-02T03:00:52;1.60;99.90
12682;DHT22;6405;59.208;18.216;2024-03-02T03:03:20;1.80;99.90
12682;DHT22;6405;59.208;18.216;2024-03-02T03:05:45;1.50;99.90
12682;DHT22;6405;59.208;18.216;2024-03-02T03:08:11;1.50;99.90
12682;DHT22;6405;59.208;18.216;2024-03-02T03:10:37;1.50;99.90
12682;DHT22;6405;59.208;18.216;2024-03-02T03:13:03;1.40;99.90
12682;DHT22;6405;59.208;18.216;2024-03-02T03:15:28;1.40;99.90
12682;DHT22;6405;59.208;18.216;2024-03-02T03:17:54;1.40;99.90
12682;DHT22;6405;59.208;18.216;2024-03-02T03:20:20;1.40;99.90
12682;DHT22;6405;59.208;18.216;2024-03-02T03:22:46;1.40;99.90
12682;DHT22;6405;59.208;18.216;2024-03-02T03:25:12;1.30;99.90
12682;DHT22;6405;59.208;18.216;2024-03-02T03:27:38;1.30;99.90
12682;DHT22;6405;59.208;18.216;2024-03-02T03:30:04;1.30;99.90
12682;DHT22;6405;59.208;18.216;2024-03-02T03:32:31;1.30;99.90
12682;DHT22;6405;59.208;18.216;2024-03-02T03:34:57;1.30;99.90
12682;DHT22;6405;59.208;18.216;2024-03-02T03:37:22;1.30;99.90
12682;DHT22;6405;59.208;18.216;2024-03-02T03:39:49;1.20;99.90
12682;DHT22;6405;59.208;18.216;2024-03-02T03:42:15;1.20;99.90
12682;DHT22;6405;59.208;18.216;2024-03-02T03:44:41;1.10;99.90
12682;DHT22;6405;59.208;18.216;2024-03-02T03:47:07;1.00;99.90
12682;DHT22;6405;59.208;18.216;2024-03-02T03:49:32;1.00;99.90
12682;DHT22;6405;59.208;18.216;2024-03-02T03:51:58;1.00;99.90
12682;DHT22;6405;59.208;18.216;2024-03-02T03:54:24;1.00;99.90
12682;DHT22;6405;59.208;18.216;2024-03-02T03:56:49;1.00;99.90
12682;DHT22;6405;59.208;18.216;2024-03-02T03:59:15;1.00;99.90
12682;DHT22;6405;59.208;18.216;2024-03-02T04:01:41;1.00;99.90
12682;DHT22;6405;59.208;18.216;2024-03-02T04:04:07;1.00;99.90
12682;DHT22;6405;59.208;18.216;2024-03-02T04:06:32;1.00;99.90
12682;DHT22;6405;59.208;18.216;2024-03-02T04:08:58;1.20;99.90
12682;DHT22;6405;59.208;18.216;2024-03-02T04:11:24;1.00;99.90
12682;DHT22;6405;59.208;18.216;2024-03-02T04:13:49;1.00;99.90
12682;DHT22;6405;59.208;18.216;2024-03-02T04:16:15;1.00;99.90
12682;DHT22;6405;59.208;18.216;2024-03-02T04:18:41;1.00;99.90
12682;DHT22;6405;59.208;18.216;2024-03-02T04:21:07;1.00;99.90
12682;DHT22;6405;59.208;18.216;2024-03-02T04:23:32;1.00;99.90
12682;DHT22;6405;59.208;18.216;2024-03-02T04:25:58;1.00;99.90
12682;DHT22;6405;59.208;18.216;2024-03-02T04:28:24;1.10;99.90
12682;DHT22;6405;59.208;18.216;2024-03-02T04:30:49;1.10;99.90
12682;DHT22;6405;59.208;18.216;2024-03-02T04:33:15;1.30;99.90
12682;DHT22;6405;59.208;18.216;2024-03-02T04:35:41;1.10;99.90
12682;DHT22;6405;59.208;18.216;2024-03-02T04:38:06;1.20;99.90
12682;DHT22;6405;59.208;18.216;2024-03-02T04:40:32;1.20;99.90
12682;DHT22;6405;59.208;18.216;2024-03-02T04:42:58;1.20;99.90
12682;DHT22;6405;59.208;18.216;2024-03-02T04:45:24;1.30;99.90
12682;DHT22;6405;59.208;18.216;2024-03-02T04:47:50;1.30;99.90
12682;DHT22;6405;59.208;18.216;2024-03-02T04:50:16;1.30;99.90
12682;DHT22;6405;59.208;18.216;2024-03-02T04:52:42;1.40;99.90
12682;DHT22;6405;59.208;18.216;2024-03-02T04:55:07;1.30;99.90
12682;DHT22;6405;59.208;18.216;2024-03-02T04:57:43;1.30;99.90
12682;DHT22;6405;59.208;18.216;2024-03-02T05:00:09;1.40;99.90
12682;DHT22;6405;59.208;18.216;2024-03-02T05:02:35;1.40;99.90
12682;DHT22;6405;59.208;18.216;2024-03-02T05:05:01;1.40;99.90
12682;DHT22;6405;59.208;18.216;2024-03-02T05:07:28;1.40;99.90
12682;DHT22;6405;59.208;18.216;2024-03-02T05:09:53;1.40;99.90
12682;DHT22;6405;59.208;18.216;2024-03-02T05:12:19;1.40;99.90
12682;DHT22;6405;59.208;18.216;2024-03-02T05:15:04;1.50;99.90
12682;DHT22;6405;59.208;18.216;2024-03-02T05:17:30;1.50;99.90
12682;DHT22;6405;59.208;18.216;2024-03-02T05:19:55;1.80;99.90
12682;DHT22;6405;59.208;18.216;2024-03-02T05:22:21;1.50;99.90
12682;DHT22;6405;59.208;18.216;2024-03-02T05:24:47;1.60;99.90
12682;DHT22;6405;59.208;18.216;2024-03-02T05:27:12;1.60;99.90
12682;DHT22;6405;59.208;18.216;2024-03-02T05:29:38;1.60;99.90
12682;DHT22;6405;59.208;18.216;2024-03-02T05:32:04;1.60;99.90
12682;DHT22;6405;59.208;18.216;2024-03-02T05:34:30;1.60;99.90
12682;DHT22;6405;59.208;18.216;2024-03-02T05:36:56;1.70;99.90
12682;DHT22;6405;59.208;18.216;2024-03-02T05:39:23;1.70;99.90
12682;DHT22;6405;59.208;18.216;2024-03-02T05:41:49;1.70;99.90
12682;DHT22;6405;59.208;18.216;2024-03-02T05:44:14;1.80;99.90
12682;DHT22;6405;59.208;18.216;2024-03-02T05:46:41;1.80;99.90
12682;DHT22;6405;59.208;18.216;2024-03-02T05:49:08;1.80;99.90
12682;DHT22;6405;59.208;18.216;2024-03-02T05:51:35;1.80;99.90
12682;DHT22;6405;59.208;18.216;2024-03-02T05:54:01;1.90;99.90
12682;DHT22;6405;59.208;18.216;2024-03-02T05:56:26;1.90;99.90
12682;DHT22;6405;59.208;18.216;2024-03-02T05:58:53;1.80;99.90
12682;DHT22;6405;59.208;18.216;2024-03-02T06:01:47;1.80;99.90
12682;DHT22;6405;59.208;18.216;2024-03-02T06:04:16;1.90;99.90
12682;DHT22;6405;59.208;18.216;2024-03-02T06:06:42;1.90;99.90
12682;DHT22;6405;59.208;18.216;2024-03-02T06:09:08;1.90;99.90
12682;DHT22;6405;59.208;18.216;2024-03-02T06:11:37;1.90;99.90
12682;DHT22;6405;59.208;18.216;2024-03-02T06:14:04;2.00;99.90
12682;DHT22;6405;59.208;18.216;2024-03-02T06:16:30;2.10;99.90
12682;DHT22;6405;59.208;18.216;2024-03-02T06:18:56;2.10;99.90
12682;DHT22;6405;59.208;18.216;2024-03-02T06:21:26;2.10;99.90
12682;DHT22;6405;59.208;18.216;2024-03-02T06:23:53;2.20;99.90
12682;DHT22;6405;59.208;18.216;2024-03-02T06:26:19;2.20;99.90
12682;DHT22;6405;59.208;18.216;2024-03-02T06:28:45;2.20;99.90
12682;DHT22;6405;59.208;18.216;2024-03-02T06:31:11;2.30;99.90
12682;DHT22;6405;59.208;18.216;2024-03-02T06:33:37;2.30;99.90
12682;DHT22;6405;59.208;18.216;2024-03-02T06:36:04;2.30;99.90
12682;DHT22;6405;59.208;18.216;2024-03-02T06:38:29;2.30;99.90
12682;DHT22;6405;59.208;18.216;2024-03-02T06:40:57;2.40;99.90
12682;DHT22;6405;59.208;18.216;2024-03-02T06:43:23;2.40;99.90
12682;DHT22;6405;59.208;18.216;2024-03-02T06:45:50;2.40;99.90
12682;DHT22;6405;59.208;18.216;2024-03-02T06:48:18;2.50;99.90
12682;DHT22;6405;59.208;18.216;2024-03-02T06:50:47;2.60;99.90
12682;DHT22;6405;59.208;18.216;2024-03-02T06:53:13;2.70;99.90
12682;DHT22;6405;59.208;18.216;2024-03-02T06:55:40;2.70;99.90
12682;DHT22;6405;59.208;18.216;2024-03-02T06:58:05;2.80;99.90
12682;DHT22;6405;59.208;18.216;2024-03-02T07:00:31;2.90;99.90
12682;DHT22;6405;59.208;18.216;2024-03-02T07:02:57;2.80;99.90
12682;DHT22;6405;59.208;18.216;2024-03-02T07:05:23;2.80;99.90
12682;DHT22;6405;59.208;18.216;2024-03-02T07:07:49;2.90;99.90
12682;DHT22;6405;59.208;18.216;2024-03-02T07:10:15;3.00;99.90
12682;DHT22;6405;59.208;18.216;2024-03-02T07:12:41;3.00;99.90
12682;DHT22;6405;59.208;18.216;2024-03-02T07:15:07;3.10;99.90
12682;DHT22;6405;59.208;18.216;2024-03-02T07:17:33;3.10;99.90
12682;DHT22;6405;59.208;18.216;2024-03-02T07:19:59;3.20;99.90
12682;DHT22;6405;59.208;18.216;2024-03-02T07:22:25;3.20;99.90
12682;DHT22;6405;59.208;18.216;2024-03-02T07:24:50;3.20;99.90
12682;DHT22;6405;59.208;18.216;2024-03-02T07:27:17;3.30;99.90
12682;DHT22;6405;59.208;18.216;2024-03-02T07:29:43;3.30;99.90
12682;DHT22;6405;59.208;18.216;2024-03-02T07:32:10;3.30;99.90
12682;DHT22;6405;59.208;18.216;2024-03-02T07:34:36;3.40;99.90
12682;DHT22;6405;59.208;18.216;2024-03-02T07:37:03;3.60;99.90
12682;DHT22;6405;59.208;18.216;2024-03-02T07:39:29;3.50;99.90
12682;DHT22;6405;59.208;18.216;2024-03-02T07:41:55;3.50;99.90
12682;DHT22;6405;59.208;18.216;2024-03-02T07:44:21;3.50;99.90
12682;DHT22;6405;59.208;18.216;2024-03-02T07:46:47;3.50;99.90
12682;DHT22;6405;59.208;18.216;2024-03-02T07:49:15;3.60;99.90
12682;DHT22;6405;59.208;18.216;2024-03-02T07:51:41;3.60;99.90
12682;DHT22;6405;59.208;18.216;2024-03-02T07:54:07;3.90;99.90
12682;DHT22;6405;59.208;18.216;2024-03-02T07:56:33;3.90;99.90
12682;DHT22;6405;59.208;18.216;2024-03-02T07:58:59;3.90;99.90
12682;DHT22;6405;59.208;18.216;2024-03-02T08:01:30;3.70;99.90
12682;DHT22;6405;59.208;18.216;2024-03-02T08:04:00;3.90;99.90
12682;DHT22;6405;59.208;18.216;2024-03-02T08:06:27;3.80;99.90
12682;DHT22;6405;59.208;18.216;2024-03-02T08:09:00;3.90;99.90
12682;DHT22;6405;59.208;18.216;2024-03-02T08:11:26;3.90;99.90
12682;DHT22;6405;59.208;18.216;2024-03-02T08:13:52;3.90;99.90
12682;DHT22;6405;59.208;18.216;2024-03-02T08:16:21;3.90;99.90
12682;DHT22;6405;59.208;18.216;2024-03-02T08:18:48;4.00;99.90
12682;DHT22;6405;59.208;18.216;2024-03-02T08:21:15;4.10;99.90
12682;DHT22;6405;59.208;18.216;2024-03-02T08:23:41;4.00;99.90
12682;DHT22;6405;59.208;18.216;2024-03-02T08:26:08;4.00;99.90
12682;DHT22;6405;59.208;18.216;2024-03-02T08:28:34;4.00;99.90
12682;DHT22;6405;59.208;18.216;2024-03-02T08:31:00;4.00;99.90
12682;DHT22;6405;59.208;18.216;2024-03-02T08:33:26;4.00;99.90
12682;DHT22;6405;59.208;18.216;2024-03-02T08:35:52;4.00;99.90
12682;DHT22;6405;59.208;18.216;2024-03-02T08:38:17;4.00;99.90
12682;DHT22;6405;59.208;18.216;2024-03-02T08:40:44;4.00;99.90
12682;DHT22;6405;59.208;18.216;2024-03-02T08:43:10;4.00;99.90
12682;DHT22;6405;59.208;18.216;2024-03-02T08:45:36;4.00;99.90
12682;DHT22;6405;59.208;18.216;2024-03-02T08:48:03;4.10;99.90
12682;DHT22;6405;59.208;18.216;2024-03-02T08:50:29;4.00;99.90
12682;DHT22;6405;59.208;18.216;2024-03-02T08:52:54;4.00;99.90
12682;DHT22;6405;59.208;18.216;2024-03-02T08:55:20;4.10;99.90
12682;DHT22;6405;59.208;18.216;2024-03-02T08:57:46;4.10;99.90
12682;DHT22;6405;59.208;18.216;2024-03-02T09:00:12;4.20;99.90
12682;DHT22;6405;59.208;18.216;2024-03-02T09:02:37;4.20;99.90
12682;DHT22;6405;59.208;18.216;2024-03-02T09:05:04;4.20;99.90
12682;DHT22;6405;59.208;18.216;2024-03-02T09:07:30;4.30;99.90
12682;DHT22;6405;59.208;18.216;2024-03-02T09:09:56;4.30;99.90
12682;DHT22;6405;59.208;18.216;2024-03-02T09:12:22;4.30;99.90
12682;DHT22;6405;59.208;18.216;2024-03-02T09:14:47;4.30;99.90
12682;DHT22;6405;59.208;18.216;2024-03-02T09:17:13;4.40;99.90
12682;DHT22;6405;59.208;18.216;2024-03-02T09:19:39;4.40;99.90
12682;DHT22;6405;59.208;18.216;2024-03-02T09:22:05;4.50;99.90
12682;DHT22;6405;59.208;18.216;2024-03-02T09:24:32;4.60;99.90
12682;DHT22;6405;59.208;18.216;2024-03-02T09:26:59;4.70;99.90
12682;DHT22;6405;59.208;18.216;2024-03-02T09:29:24;4.90;99.90
12682;DHT22;6405;59.208;18.216;2024-03-02T09:31:50;4.90;99.90
12682;DHT22;6405;59.208;18.216;2024-03-02T09:34:16;4.90;99.90
12682;DHT22;6405;59.208;18.216;2024-03-02T09:36:42;5.00;99.90
12682;DHT22;6405;59.208;18.216;2024-03-02T09:39:08;5.10;99.90
12682;DHT22;6405;59.208;18.216;2024-03-02T09:41:37;5.20;99.90
12682;DHT22;6405;59.208;18.216;2024-03-02T09:44:05;5.20;99.90
12682;DHT22;6405;59.208;18.216;2024-03-02T09:46:31;5.30;99.90
12682;DHT22;6405;59.208;18.216;2024-03-02T09:48:56;5.30;99.90
12682;DHT22;6405;59.208;18.216;2024-03-02T09:51:23;5.30;99.90
12682;DHT22;6405;59.208;18.216;2024-03-02T09:53:49;5.30;99.90
12682;DHT22;6405;59.208;18.216;2024-03-02T09:56:15;5.20;99.90
12682;DHT22;6405;59.208;18.216;2024-03-02T09:58:44;5.20;99.90
12682;DHT22;6405;59.208;18.216;2024-03-02T10:01:10;5.20;99.90
12682;DHT22;6405;59.208;18.216;2024-03-02T10:03:37;5.30;99.90
12682;DHT22;6405;59.208;18.216;2024-03-02T10:06:23;5.20;99.90
12682;DHT22;6405;59.208;18.216;2024-03-02T10:08:49;5.20;99.90
12682;DHT22;6405;59.208;18.216;2024-03-02T10:11:31;5.20;99.90
12682;DHT22;6405;59.208;18.216;2024-03-02T10:14:08;5.10;99.90
12682;DHT22;6405;59.208;18.216;2024-03-02T10:16:35;5.00;99.90
12682;DHT22;6405;59.208;18.216;2024-03-02T10:19:22;4.90;99.90
12682;DHT22;6405;59.208;18.216;2024-03-02T10:21:53;5.00;99.90
12682;DHT22;6405;59.208;18.216;2024-03-02T10:24:20;4.90;99.90
12682;DHT22;6405;59.208;18.216;2024-03-02T10:26:46;5.00;99.90
12682;DHT22;6405;59.208;18.216;2024-03-02T10:29:12;5.00;99.90
12682;DHT22;6405;59.208;18.216;2024-03-02T10:31:39;5.00;99.90
12682;DHT22;6405;59.208;18.216;2024-03-02T10:34:06;5.00;99.90
12682;DHT22;6405;59.208;18.216;2024-03-02T10:36:35;5.00;99.90
12682;DHT22;6405;59.208;18.216;2024-03-02T10:39:06;5.00;99.90
12682;DHT22;6405;59.208;18.216;2024-03-02T10:41:36;5.00;99.90
12682;DHT22;6405;59.208;18.216;2024-03-02T10:44:09;5.00;99.90
12682;DHT22;6405;59.208;18.216;2024-03-02T10:46:37;5.00;99.90
12682;DHT22;6405;59.208;18.216;2024-03-02T10:49:05;5.10;99.90
12682;DHT22;6405;59.208;18.216;2024-03-02T10:51:32;5.10;99.90
12682;DHT22;6405;59.208;18.216;2024-03-02T10:53:59;5.00;99.90
12682;DHT22;6405;59.208;18.216;2024-03-02T10:56:29;5.10;99.90
12682;DHT22;6405;59.208;18.216;2024-03-02T11:01:39;5.30;99.90
12682;DHT22;6405;59.208;18.216;2024-03-02T11:04:08;5.30;99.90
12682;DHT22;6405;59.208;18.216;2024-03-02T11:06:35;5.30;99.90
12682;DHT22;6405;59.208;18.216;2024-03-02T11:09:07;5.30;99.90
12682;DHT22;6405;59.208;18.216;2024-03-02T11:11:37;5.40;99.90
12682;DHT22;6405;59.208;18.216;2024-03-02T11:14:09;5.40;99.90
12682;DHT22;6405;59.208;18.216;2024-03-02T11:16:37;5.40;99.90
12682;DHT22;6405;59.208;18.216;2024-03-02T11:19:05;5.30;99.90
12682;DHT22;6405;59.208;18.216;2024-03-02T11:21:33;5.30;99.90
12682;DHT22;6405;59.208;18.216;2024-03-02T11:23:59;5.30;99.90
12682;DHT22;6405;59.208;18.216;2024-03-02T11:26:25;5.40;99.90
12682;DHT22;6405;59.208;18.216;2024-03-02T11:28:52;5.40;99.90
12682;DHT22;6405;59.208;18.216;2024-03-02T11:31:18;5.40;99.90
12682;DHT22;6405;59.208;18.216;2024-03-02T11:33:44;5.40;99.90
12682;DHT22;6405;59.208;18.216;2024-03-02T11:36:10;5.40;99.90
12682;DHT22;6405;59.208;18.216;2024-03-02T11:38:36;5.40;99.90
12682;DHT22;6405;59.208;18.216;2024-03-02T11:41:05;5.40;99.90
12682;DHT22;6405;59.208;18.216;2024-03-02T11:43:32;5.40;99.90
12682;DHT22;6405;59.208;18.216;2024-03-02T11:46:04;5.30;99.90
12682;DHT22;6405;59.208;18.216;2024-03-02T11:48:32;5.30;99.90
12682;DHT22;6405;59.208;18.216;2024-03-02T11:51:00;5.30;99.90
12682;DHT22;6405;59.208;18.216;2024-03-02T11:53:27;5.30;99.90
12682;DHT22;6405;59.208;18.216;2024-03-02T11:55:55;5.30;99.90
12682;DHT22;6405;59.208;18.216;2024-03-02T11:58:21;5.30;99.90
12682;DHT22;6405;59.208;18.216;2024-03-02T12:00:55;5.30;99.90
12682;DHT22;6405;59.208;18.216;2024-03-02T12:03:25;5.20;99.90
12682;DHT22;6405;59.208;18.216;2024-03-02T12:05:54;5.30;99.90
12682;DHT22;6405;59.208;18.216;2024-03-02T12:08:21;5.30;99.90
12682;DHT22;6405;59.208;18.216;2024-03-02T12:11:01;5.30;99.90
12682;DHT22;6405;59.208;18.216;2024-03-02T12:13:27;5.40;99.90
12682;DHT22;6405;59.208;18.216;2024-03-02T12:15:54;5.40;99.90
12682;DHT22;6405;59.208;18.216;2024-03-02T12:18:21;5.40;99.90
12682;DHT22;6405;59.208;18.216;2024-03-02T12:20:49;5.40;99.90
12682;DHT22;6405;59.208;18.216;2024-03-02T12:23:18;5.30;99.90
12682;DHT22;6405;59.208;18.216;2024-03-02T12:25:45;5.40;99.90
12682;DHT22;6405;59.208;18.216;2024-03-02T12:28:11;5.40;99.90
12682;DHT22;6405;59.208;18.216;2024-03-02T12:30:37;5.30;99.90
12682;DHT22;6405;59.208;18.216;2024-03-02T12:33:03;5.30;99.90
12682;DHT22;6405;59.208;18.216;2024-03-02T12:35:30;5.40;99.90
12682;DHT22;6405;59.208;18.216;2024-03-02T12:37:55;5.30;99.90
12682;DHT22;6405;59.208;18.216;2024-03-02T12:40:22;5.20;99.90
12682;DHT22;6405;59.208;18.216;2024-03-02T12:42:48;5.20;99.90
12682;DHT22;6405;59.208;18.216;2024-03-02T12:45:14;5.10;99.90
12682;DHT22;6405;59.208;18.216;2024-03-02T12:47:41;5.10;99.90
12682;DHT22;6405;59.208;18.216;2024-03-02T12:50:07;5.10;99.90
12682;DHT22;6405;59.208;18.216;2024-03-02T12:52:33;5.00;99.90
12682;DHT22;6405;59.208;18.216;2024-03-02T12:55:04;5.00;99.90
12682;DHT22;6405;59.208;18.216;2024-03-02T12:57:33;5.00;99.90
12682;DHT22;6405;59.208;18.216;2024-03-02T13:02:35;5.00;99.90
12682;DHT22;6405;59.208;18.216;2024-03-02T13:05:01;4.90;99.90
12682;DHT22;6405;59.208;18.216;2024-03-02T13:07:28;5.00;99.90
12682;DHT22;6405;59.208;18.216;2024-03-02T13:09:55;5.00;99.90
12682;DHT22;6405;59.208;18.216;2024-03-02T13:12:21;5.00;99.90
12682;DHT22;6405;59.208;18.216;2024-03-02T13:14:52;5.00;99.90
12682;DHT22;6405;59.208;18.216;2024-03-02T13:17:21;5.10;99.90
12682;DHT22;6405;59.208;18.216;2024-03-02T13:19:57;5.10;99.90
12682;DHT22;6405;59.208;18.216;2024-03-02T13:22:23;5.10;99.90
12682;DHT22;6405;59.208;18.216;2024-03-02T13:24:51;5.00;99.90
12682;DHT22;6405;59.208;18.216;2024-03-02T13:27:17;5.10;99.90
12682;DHT22;6405;59.208;18.216;2024-03-02T13:29:48;5.10;99.90
12682;DHT22;6405;59.208;18.216;2024-03-02T13:32:15;5.10;99.90
12682;DHT22;6405;59.208;18.216;2024-03-02T13:34:40;5.10;99.90
12682;DHT22;6405;59.208;18.216;2024-03-02T13:37:06;5.10;99.90
12682;DHT22;6405;59.208;18.216;2024-03-02T13:39:32;5.10;99.90
12682;DHT22;6405;59.208;18.216;2024-03-02T13:42:00;5.10;99.90
12682;DHT22;6405;59.208;18.216;2024-03-02T13:44:31;5.10;99.90
12682;DHT22;6405;59.208;18.216;2024-03-02T13:46:57;5.20;99.90
12682;DHT22;6405;59.208;18.216;2024-03-02T13:49:23;5.10;99.90
12682;DHT22;6405;59.208;18.216;2024-03-02T13:51:49;5.20;99.90
12682;DHT22;6405;59.208;18.216;2024-03-02T13:54:15;5.10;99.90
12682;DHT22;6405;59.208;18.216;2024-03-02T13:56:41;5.10;99.90
12682;DHT22;6405;59.208;18.216;2024-03-02T13:59:07;5.20;99.90
12682;DHT22;6405;59.208;18.216;2024-03-02T14:01:33;5.20;99.90
12682;DHT22;6405;59.208;18.216;2024-03-02T14:03:59;5.10;99.90
12682;DHT22;6405;59.208;18.216;2024-03-02T14:06:26;5.10;99.90
12682;DHT22;6405;59.208;18.216;2024-03-02T14:08:53;5.10;99.90
12682;DHT22;6405;59.208;18.216;2024-03-02T14:11:19;5.10;99.90
12682;DHT22;6405;59.208;18.216;2024-03-02T14:13:45;5.20;99.90
12682;DHT22;6405;59.208;18.216;2024-03-02T14:16:15;5.20;99.90
12682;DHT22;6405;59.208;18.216;2024-03-02T14:18:41;5.30;99.90
12682;DHT22;6405;59.208;18.216;2024-03-02T14:21:07;5.30;99.90
12682;DHT22;6405;59.208;18.216;2024-03-02T14:23:33;5.30;99.90
12682;DHT22;6405;59.208;18.216;2024-03-02T14:25:59;5.30;99.90
12682;DHT22;6405;59.208;18.216;2024-03-02T14:28:25;5.30;99.90
12682;DHT22;6405;59.208;18.216;2024-03-02T14:30:51;5.20;99.90
12682;DHT22;6405;59.208;18.216;2024-03-02T14:33:16;5.10;99.90
12682;DHT22;6405;59.208;18.216;2024-03-02T14:35:44;5.10;99.90
12682;DHT22;6405;59.208;18.216;2024-03-02T14:38:10;5.10;99.90
12682;DHT22;6405;59.208;18.216;2024-03-02T14:40:35;5.10;99.90
12682;DHT22;6405;59.208;18.216;2024-03-02T14:43:01;5.10;99.90
12682;DHT22;6405;59.208;18.216;2024-03-02T14:45:27;5.00;99.90
12682;DHT22;6405;59.208;18.216;2024-03-02T14:47:52;5.00;99.90
12682;DHT22;6405;59.208;18.216;2024-03-02T14:50:18;5.00;99.90
12682;DHT22;6405;59.208;18.216;2024-03-02T14:52:45;5.00;99.90
12682;DHT22;6405;59.208;18.216;2024-03-02T14:55:11;5.00;99.90
12682;DHT22;6405;59.208;18.216;2024-03-02T14:57:36;4.90;99.90
12682;DHT22;6405;59.208;18.216;2024-03-02T15:00:02;4.90;99.90
12682;DHT22;6405;59.208;18.216;2024-03-02T15:02:29;4.80;99.90
12682;DHT22;6405;59.208;18.216;2024-03-02T15:04:55;4.80;99.90
12682;DHT22;6405;59.208;18.216;2024-03-02T15:07:21;4.80;99.90
12682;DHT22;6405;59.208;18.216;2024-03-02T15:09:46;4.70;99.90
12682;DHT22;6405;59.208;18.216;2024-03-02T15:12:12;4.70;99.90
12682;DHT22;6405;59.208;18.216;2024-03-02T15:14:39;4.60;99.90
12682;DHT22;6405;59.208;18.216;2024-03-02T15:17:12;4.60;99.90
12682;DHT22;6405;59.208;18.216;2024-03-02T15:19:42;4.50;99.90
12682;DHT22;6405;59.208;18.216;2024-03-02T15:22:08;4.50;99.90
12682;DHT22;6405;59.208;18.216;2024-03-02T15:24:34;4.50;99.90
12682;DHT22;6405;59.208;18.216;2024-03-02T15:26:59;4.40;99.90
12682;DHT22;6405;59.208;18.216;2024-03-02T15:29:26;4.40;99.90
12682;DHT22;6405;59.208;18.216;2024-03-02T15:31:55;4.30;99.90
12682;DHT22;6405;59.208;18.216;2024-03-02T15:34:20;4.30;99.90
12682;DHT22;6405;59.208;18.216;2024-03-02T15:36:46;4.20;99.90
12682;DHT22;6405;59.208;18.216;2024-03-02T15:39:12;4.30;99.90
12682;DHT22;6405;59.208;18.216;2024-03-02T15:41:38;4.20;99.90
12682;DHT22;6405;59.208;18.216;2024-03-02T15:44:06;4.20;99.90
12682;DHT22;6405;59.208;18.216;2024-03-02T15:46:33;4.20;99.90
12682;DHT22;6405;59.208;18.216;2024-03-02T15:48:59;4.20;99.90